createdAt,value
2022-11-10T00:02:31.632Z,6.32
2022-11-10T00:09:38.133Z,6.32
2022-11-10T00:16:55.203Z,6.32
2022-11-10T00:23:59.725Z,6.40
2022-11-10T00:31:09.558Z,6.60
2022-11-10T00:38:13.344Z,7.05
2022-11-10T00:45:17.201Z,6.70
2022-11-10T00:52:23.707Z,6.55
2022-11-10T00:59:27.987Z,6.45
2022-11-10T01:06:32.315Z,6.22
2022-11-10T01:13:39.369Z,6.13
2022-11-10T01:27:47.089Z,6.78
2022-11-10T01:34:53.755Z,6.20
2022-11-10T01:41:57.656Z,6.57
2022-11-10T01:49:04.893Z,6.07
2022-11-10T02:10:24.765Z,6.45
2022-11-10T02:17:31.440Z,6.70
2022-11-10T02:24:37.857Z,6.80
2022-11-10T02:31:41.975Z,6.40
2022-11-10T02:38:46.055Z,5.80
2022-11-10T02:45:52.465Z,5.70
2022-11-10T02:52:56.555Z,6.43
2022-11-10T03:00:00.683Z,6.60
2022-11-10T03:07:11.969Z,7.13
2022-11-10T03:14:15.921Z,7.50
2022-11-10T03:21:20.111Z,6.78
2022-11-10T03:28:27.004Z,6.97
2022-11-10T03:35:31.108Z,6.47
2022-11-10T03:42:35.254Z,6.70
2022-11-10T04:03:30.103Z,7.97
2022-11-10T04:10:34.673Z,8.07
2022-11-10T04:17:38.884Z,8.18
2022-11-10T04:24:47.756Z,8.73
2022-11-10T04:31:51.619Z,8.20
2022-11-10T04:38:56.279Z,8.45
2022-11-10T04:46:05.016Z,8.82
2022-11-10T04:53:08.949Z,8.25
2022-11-10T05:00:15.655Z,8.75
2022-11-10T05:07:22.044Z,9.13
2022-11-10T05:14:25.953Z,8.80
2022-11-10T05:21:30.791Z,8.70
2022-11-10T05:28:38.084Z,9.02
2022-11-10T05:35:42.866Z,9.43
2022-11-10T05:42:47.668Z,10.00
2022-11-10T05:49:54.476Z,9.27
2022-11-10T05:56:58.304Z,9.20
2022-11-10T06:04:02.237Z,9.20
2022-11-10T06:11:09.476Z,9.55
2022-11-10T06:18:13.363Z,9.95
2022-11-10T06:25:17.273Z,10.18
2022-11-10T06:32:24.056Z,9.68
2022-11-10T06:39:28.034Z,9.70
2022-11-10T06:46:34.176Z,9.65
2022-11-10T06:53:44.615Z,9.73
2022-11-10T07:00:49.343Z,9.85
2022-11-10T07:07:53.330Z,9.65
2022-11-10T07:14:59.934Z,10.23
2022-11-10T07:22:09.594Z,10.10
2022-11-10T07:29:14.706Z,11.25
2022-11-10T07:36:21.590Z,10.98
2022-11-10T07:43:27.662Z,10.10
2022-11-10T07:50:32.146Z,10.55
2022-11-10T07:57:39.005Z,10.02
2022-11-10T08:04:43.091Z,10.30
2022-11-10T08:11:47.073Z,10.88
2022-11-10T08:18:53.856Z,10.48
2022-11-10T08:26:00.681Z,11.30
2022-11-10T08:33:07.664Z,10.15
2022-11-10T08:40:15.786Z,10.17
2022-11-10T08:47:19.466Z,10.10
2022-11-10T08:54:23.457Z,9.80
2022-11-10T09:01:30.160Z,10.40
2022-11-10T09:08:34.802Z,9.73
2022-11-10T09:15:39.938Z,9.20
2022-11-10T09:22:46.597Z,9.90
2022-11-10T09:29:50.753Z,9.32
2022-11-10T09:36:54.664Z,9.02
2022-11-10T09:44:08.005Z,9.18
2022-11-10T09:51:18.533Z,8.50
2022-11-10T09:58:28.436Z,8.63
2022-11-10T10:05:56.995Z,8.38
2022-11-10T10:13:21.536Z,8.23
2022-11-10T10:20:36.156Z,8.30
2022-11-10T10:27:44.426Z,8.23
2022-11-10T10:34:49.659Z,7.28
2022-11-10T10:41:53.744Z,6.95
2022-11-10T10:49:28.472Z,6.95
2022-11-10T10:56:36.259Z,6.82
2022-11-10T11:03:46.717Z,7.28
2022-11-10T11:10:53.356Z,6.18
2022-11-10T11:17:59.219Z,6.07
2022-11-10T11:25:15.356Z,5.80
2022-11-10T11:32:54.508Z,5.77
2022-11-10T11:40:15.220Z,5.75
2022-11-10T11:47:40.413Z,5.40
2022-11-10T11:55:04.426Z,5.88
2022-11-10T12:02:52.479Z,6.15
2022-11-10T12:10:13.004Z,5.57
2022-11-10T12:17:25.172Z,5.53
2022-11-10T12:24:51.446Z,5.30
2022-11-10T12:32:04.576Z,5.38
2022-11-10T12:39:19.741Z,5.40
2022-11-10T12:46:23.477Z,5.07
2022-11-10T12:53:33.661Z,5.30
2022-11-10T13:00:45.794Z,5.57
2022-11-10T13:07:53.332Z,5.05
2022-11-10T13:14:59.840Z,4.80
2022-11-10T13:22:14.631Z,5.00
2022-11-10T13:29:37.480Z,4.90
2022-11-10T13:36:46.162Z,5.05
2022-11-10T13:43:56.109Z,4.78
2022-11-10T13:51:13.573Z,5.10
2022-11-10T13:58:29.808Z,4.63
2022-11-10T14:06:07.801Z,4.80
2022-11-10T14:13:19.898Z,5.40
2022-11-10T14:20:33.004Z,5.10
2022-11-10T14:27:39.198Z,9.10
2022-11-10T14:34:50.189Z,8.57
2022-11-10T14:41:57.333Z,5.70
2022-11-10T14:49:02.574Z,5.22
2022-11-10T14:56:16.438Z,4.60
2022-11-10T15:03:31.351Z,4.68
2022-11-10T15:10:50.643Z,4.43
2022-11-10T15:17:55.679Z,4.30
2022-11-10T15:25:04.236Z,4.97
2022-11-10T15:32:20.339Z,4.78
2022-11-10T15:39:28.760Z,4.78
2022-11-10T15:46:35.500Z,4.35
2022-11-10T16:00:46.199Z,4.75
2022-11-10T16:07:52.708Z,5.40
2022-11-10T16:14:56.958Z,4.90
2022-11-10T16:22:00.622Z,5.00
2022-11-10T16:29:13.800Z,5.00
2022-11-10T16:36:26.812Z,5.10
2022-11-10T16:43:32.794Z,4.80
2022-11-10T16:50:40.501Z,5.70
2022-11-10T16:57:44.637Z,5.57
2022-11-10T17:04:48.993Z,5.72
2022-11-10T17:11:55.475Z,5.65
2022-11-10T17:19:02.180Z,5.50
2022-11-10T17:33:13.863Z,6.18
2022-11-10T17:40:23.151Z,6.10
2022-11-10T17:47:27.229Z,7.15
2022-11-10T17:54:34.121Z,6.75
2022-11-10T18:01:38.345Z,6.90
2022-11-10T18:08:42.187Z,9.02
2022-11-10T18:15:54.265Z,8.88
2022-11-10T18:22:58.080Z,7.70
2022-11-10T18:30:02.547Z,8.45
2022-11-10T18:37:09.219Z,7.43
2022-11-10T18:44:13.723Z,7.05
2022-11-10T18:51:18.960Z,6.55
2022-11-10T18:58:26.054Z,8.25
2022-11-10T19:12:35.214Z,7.75
2022-11-10T19:19:41.731Z,8.10
2022-11-10T19:26:45.876Z,7.90
2022-11-10T19:33:50.556Z,7.82
2022-11-10T19:40:57.167Z,7.80
2022-11-10T19:48:01.099Z,10.73
2022-11-10T19:55:05.063Z,10.50
2022-11-10T20:02:13.819Z,11.60
2022-11-10T20:09:17.987Z,11.15
2022-11-10T20:16:21.780Z,10.27
2022-11-10T20:23:28.607Z,10.95
2022-11-10T20:30:33.476Z,9.90
2022-11-10T20:37:37.870Z,9.45
2022-11-10T20:44:44.749Z,9.30
2022-11-10T20:51:48.920Z,9.32
2022-11-10T20:58:53.612Z,9.05
2022-11-10T21:06:01.956Z,8.65
2022-11-10T21:13:05.941Z,8.50
2022-11-10T21:20:11.805Z,8.93
2022-11-10T21:27:18.283Z,9.90
2022-11-10T21:34:22.697Z,9.90
2022-11-10T21:41:26.630Z,10.05
2022-11-10T21:48:33.641Z,9.45
2022-11-10T21:55:37.689Z,10.60
2022-11-10T22:02:41.501Z,10.07
2022-11-10T22:10:00.831Z,10.55
2022-11-10T22:17:17.525Z,10.48
2022-11-10T22:24:27.275Z,10.27
2022-11-10T22:31:36.657Z,10.38
2022-11-10T22:38:43.320Z,10.60
2022-11-10T22:45:48.547Z,11.45
2022-11-10T22:52:55.726Z,10.52
2022-11-10T22:59:59.945Z,10.80
2022-11-10T23:07:05.238Z,10.20
2022-11-10T23:14:13.520Z,10.15
2022-11-10T23:21:20.183Z,9.68
2022-11-10T23:28:24.082Z,9.03
2022-11-10T23:35:30.897Z,9.40
2022-11-10T23:42:34.857Z,8.73
2022-11-10T23:49:38.688Z,8.98
2022-11-10T23:56:45.350Z,8.90
